createdAt,value
2022-12-01T00:01:18.438Z,48.00
2022-12-01T00:06:22.693Z,51.92
2022-12-01T00:11:26.401Z,48.63
2022-12-01T00:16:31.507Z,45.97
2022-12-01T00:21:35.206Z,50.17
2022-12-01T00:26:39.734Z,47.25
2022-12-01T00:31:45.893Z,55.55
2022-12-01T00:36:49.751Z,50.35
2022-12-01T00:41:53.441Z,51.37
2022-12-01T00:46:58.496Z,51.33
2022-12-01T00:52:02.179Z,51.17
2022-12-01T00:57:06.244Z,51.25
2022-12-01T01:02:11.304Z,56.92
2022-12-01T01:07:15.077Z,61.33
2022-12-01T01:12:18.740Z,66.18
2022-12-01T01:17:23.859Z,55.95
2022-12-01T01:22:27.569Z,63.17
2022-12-01T01:27:31.302Z,57.38
2022-12-01T01:32:36.398Z,70.32
2022-12-01T01:37:40.116Z,61.15
2022-12-01T01:42:43.797Z,60.97
2022-12-01T01:47:51.211Z,62.60
2022-12-01T01:53:02.313Z,64.43
2022-12-01T01:58:10.229Z,62.30
2022-12-01T02:03:18.058Z,58.35
2022-12-01T02:08:21.926Z,61.13
2022-12-01T02:13:34.703Z,61.72
2022-12-01T02:18:52.117Z,59.67
2022-12-01T02:24:35.663Z,57.17
2022-12-01T02:30:02.855Z,56.55
2022-12-01T02:35:17.283Z,58.90
2022-12-01T02:40:26.518Z,59.28
2022-12-01T02:45:37.778Z,57.50
2022-12-01T02:50:44.073Z,58.45
2022-12-01T02:55:49.659Z,56.47
2022-12-01T03:01:08.160Z,62.15
2022-12-01T03:06:18.433Z,54.00
2022-12-01T03:11:31.571Z,55.20
2022-12-01T03:16:46.926Z,57.15
2022-12-01T03:21:59.496Z,55.85
2022-12-01T03:27:05.691Z,59.50
2022-12-01T03:32:14.290Z,51.75
2022-12-01T03:37:23.579Z,54.92
2022-12-01T03:42:31.559Z,54.08
2022-12-01T03:47:37.630Z,56.35
2022-12-01T03:52:50.859Z,51.88
2022-12-01T03:57:59.337Z,55.08
2022-12-01T04:03:04.893Z,53.80
2022-12-01T04:08:10.094Z,56.60
2022-12-01T04:13:22.521Z,56.90
2022-12-01T04:18:26.256Z,60.80
2022-12-01T04:23:48.826Z,53.28
2022-12-01T04:28:52.558Z,62.72
2022-12-01T04:33:56.536Z,62.85
2022-12-01T04:39:02.146Z,59.35
2022-12-01T04:44:06.214Z,58.08
2022-12-01T04:49:10.297Z,63.38
2022-12-01T04:54:15.583Z,63.28
2022-12-01T04:59:19.304Z,64.28
2022-12-01T05:04:23.001Z,62.50
2022-12-01T05:09:28.092Z,64.22
2022-12-01T05:14:31.760Z,58.90
2022-12-01T05:19:53.078Z,65.10
2022-12-01T05:24:58.172Z,65.47
2022-12-01T05:30:01.860Z,64.75
2022-12-01T05:35:06.450Z,69.22
2022-12-01T05:40:12.978Z,63.63
2022-12-01T05:45:16.857Z,63.55
2022-12-01T05:50:20.579Z,61.15
2022-12-01T05:55:26.080Z,62.38
2022-12-01T06:00:30.283Z,65.12
2022-12-01T06:05:34.074Z,67.62
2022-12-01T06:10:39.101Z,68.35
2022-12-01T06:15:42.814Z,62.25
2022-12-01T06:20:46.486Z,71.82
2022-12-01T06:25:51.574Z,71.30
2022-12-01T06:31:00.992Z,66.57
2022-12-01T06:36:08.586Z,72.95
2022-12-01T06:41:13.702Z,67.32
2022-12-01T06:46:17.427Z,67.05
2022-12-01T06:51:21.360Z,76.82
2022-12-01T06:56:26.417Z,71.78
2022-12-01T07:01:30.488Z,77.50
2022-12-01T07:06:34.220Z,74.45
2022-12-01T07:11:39.243Z,70.55
2022-12-01T07:16:43.137Z,69.25
2022-12-01T07:21:46.845Z,69.32
2022-12-01T07:26:51.942Z,71.53
2022-12-01T07:31:55.645Z,73.60
2022-12-01T07:36:59.423Z,73.78
2022-12-01T07:42:05.152Z,72.80
2022-12-01T07:47:08.981Z,77.40
2022-12-01T07:52:12.698Z,74.65
2022-12-01T07:57:19.635Z,82.95
2022-12-01T08:02:23.455Z,74.82
2022-12-01T08:07:29.884Z,75.03
2022-12-01T08:12:35.181Z,66.07
2022-12-01T08:17:38.858Z,71.65
2022-12-01T08:22:42.965Z,67.35
2022-12-01T08:27:48.259Z,69.57
2022-12-01T08:32:54.390Z,69.10
2022-12-01T08:37:58.163Z,70.28
2022-12-01T08:43:03.228Z,75.03
2022-12-01T08:48:07.475Z,77.22
2022-12-01T08:53:11.194Z,62.53
2022-12-01T08:58:16.256Z,64.70
2022-12-01T09:03:20.056Z,71.93
2022-12-01T09:08:34.041Z,73.30
2022-12-01T09:13:40.151Z,65.35
2022-12-01T09:18:44.678Z,67.85
2022-12-01T09:23:48.818Z,65.03
2022-12-01T09:28:56.330Z,67.70
2022-12-01T09:34:01.966Z,66.80
2022-12-01T09:39:07.474Z,66.30
2022-12-01T09:44:21.882Z,66.53
2022-12-01T09:49:30.479Z,69.40
2022-12-01T09:54:34.196Z,67.32
2022-12-01T09:59:43.240Z,67.90
2022-12-01T10:04:48.941Z,68.22
2022-12-01T10:09:56.829Z,68.05
2022-12-01T10:15:16.211Z,72.60
2022-12-01T10:20:26.861Z,67.82
2022-12-01T10:25:38.734Z,71.30
2022-12-01T10:30:50.839Z,72.22
2022-12-01T10:35:55.167Z,71.80
2022-12-01T10:41:01.666Z,74.32
2022-12-01T10:46:20.718Z,73.62
2022-12-01T10:51:25.132Z,70.45
2022-12-01T10:56:29.513Z,72.10
2022-12-01T11:01:36.327Z,68.95
2022-12-01T11:06:40.598Z,73.20
2022-12-01T11:11:44.470Z,71.32
2022-12-01T11:16:52.500Z,70.80
2022-12-01T11:21:58.433Z,70.65
2022-12-01T11:27:02.261Z,68.12
2022-12-01T11:32:20.232Z,65.57
2022-12-01T11:37:26.577Z,66.22
2022-12-01T11:42:34.361Z,61.58
2022-12-01T11:47:59.704Z,61.30
2022-12-01T11:53:04.185Z,62.47
2022-12-01T11:58:09.897Z,58.92
2022-12-01T12:03:22.218Z,59.60
2022-12-01T12:08:36.682Z,64.70
2022-12-01T12:14:12.589Z,60.58
2022-12-01T12:20:06.442Z,59.03
2022-12-01T12:25:09.342Z,60.78
2022-12-01T12:30:23.513Z,59.70
2022-12-01T12:35:36.755Z,59.03
2022-12-01T12:40:47.785Z,56.47
2022-12-01T12:46:08.353Z,61.03
2022-12-01T12:51:18.851Z,52.20
2022-12-01T12:56:27.038Z,54.47
2022-12-01T13:01:35.537Z,53.45
2022-12-01T13:06:44.659Z,50.47
2022-12-01T13:11:54.040Z,46.75
2022-12-01T13:17:08.342Z,38.67
2022-12-01T13:22:15.363Z,44.20
2022-12-01T13:27:22.203Z,45.72
2022-12-01T13:32:31.427Z,48.13
2022-12-01T13:37:39.211Z,57.20
2022-12-01T13:42:43.289Z,61.40
2022-12-01T13:47:52.699Z,59.78
2022-12-01T13:53:11.447Z,67.03
2022-12-01T13:58:27.381Z,61.35
2022-12-01T14:03:56.987Z,62.00
2022-12-01T14:09:07.273Z,64.70
2022-12-01T14:14:14.535Z,66.53
2022-12-01T14:19:31.538Z,58.03
2022-12-01T14:24:40.415Z,57.30
2022-12-01T14:29:44.520Z,53.80
2022-12-01T14:34:53.770Z,58.00
2022-12-01T14:40:07.068Z,52.17
2022-12-01T14:45:16.475Z,53.95
2022-12-01T14:50:25.473Z,53.78
2022-12-01T14:55:35.319Z,54.35
2022-12-01T15:00:41.736Z,52.15
2022-12-01T15:05:45.609Z,52.05
2022-12-01T15:10:55.856Z,48.45
2022-12-01T15:16:01.340Z,52.85
2022-12-01T15:21:09.514Z,55.35
2022-12-01T15:26:19.809Z,57.60
2022-12-01T15:31:24.543Z,50.90
2022-12-01T15:36:28.472Z,54.88
2022-12-01T15:41:36.692Z,57.55
2022-12-01T15:51:44.568Z,57.95
2022-12-01T15:56:53.865Z,61.72
2022-12-01T16:01:58.366Z,60.60
2022-12-01T16:07:05.618Z,66.87
2022-12-01T16:12:28.930Z,64.28
2022-12-01T16:17:43.241Z,64.75
2022-12-01T16:22:47.687Z,62.05
2022-12-01T16:27:54.815Z,61.40
2022-12-01T16:33:03.344Z,69.68
2022-12-01T16:38:15.811Z,60.08
2022-12-01T16:43:22.859Z,56.58
2022-12-01T16:48:26.641Z,57.88
2022-12-01T16:53:30.462Z,71.30
2022-12-01T16:58:35.653Z,63.92
2022-12-01T17:03:39.525Z,67.03
2022-12-01T17:08:43.252Z,65.95
2022-12-01T17:13:48.282Z,68.60
2022-12-01T17:18:52.146Z,66.25
2022-12-01T17:23:55.922Z,65.85
2022-12-01T17:29:01.018Z,63.83
2022-12-01T17:34:04.811Z,64.45
2022-12-01T17:39:08.539Z,69.62
2022-12-01T17:44:13.676Z,67.12
2022-12-01T17:49:17.481Z,62.42
2022-12-01T17:54:21.479Z,65.68
2022-12-01T17:59:26.879Z,66.37
2022-12-01T18:04:31.310Z,68.50
2022-12-01T18:09:35.292Z,73.93
2022-12-01T18:14:40.801Z,60.55
2022-12-01T18:19:44.510Z,70.72
2022-12-01T18:24:48.672Z,68.45
2022-12-01T18:29:54.036Z,66.10
2022-12-01T18:34:57.909Z,71.90
2022-12-01T18:40:01.576Z,64.22
2022-12-01T18:45:07.606Z,64.57
2022-12-01T18:50:11.749Z,67.07
2022-12-01T18:55:15.723Z,63.15
2022-12-01T19:00:21.966Z,63.58
2022-12-01T19:10:31.417Z,69.57
2022-12-01T19:15:38.676Z,67.05
2022-12-01T19:20:42.558Z,64.10
2022-12-01T19:25:46.339Z,66.37
2022-12-01T19:30:51.441Z,70.55
2022-12-01T19:35:55.625Z,68.07
2022-12-01T19:41:02.127Z,72.18
2022-12-01T19:46:09.331Z,71.60
2022-12-01T19:51:19.775Z,67.18
2022-12-01T19:56:24.869Z,69.87
2022-12-01T20:01:30.150Z,72.15
2022-12-01T20:06:35.984Z,71.95
2022-12-01T20:11:39.677Z,71.68
2022-12-01T20:16:44.939Z,68.85
2022-12-01T20:21:48.798Z,79.70
2022-12-01T20:26:56.668Z,71.12
2022-12-01T20:32:03.248Z,74.97
2022-12-01T20:37:07.194Z,68.85
2022-12-01T20:42:11.423Z,69.97
2022-12-01T20:47:18.571Z,70.18
2022-12-01T20:52:22.494Z,76.68
2022-12-01T20:57:26.411Z,74.00
2022-12-01T21:02:31.637Z,70.00
2022-12-01T21:07:35.431Z,74.70
2022-12-01T21:12:58.352Z,75.40
2022-12-01T21:18:06.490Z,75.80
2022-12-01T21:23:12.931Z,73.43
2022-12-01T21:28:19.885Z,70.37
2022-12-01T21:33:29.139Z,68.37
2022-12-01T21:38:32.975Z,75.03
2022-12-01T21:43:38.575Z,76.10
2022-12-01T21:48:46.061Z,78.80
2022-12-01T21:53:51.022Z,69.07
2022-12-01T21:58:58.750Z,74.37
2022-12-01T22:04:13.170Z,73.93
2022-12-01T22:09:23.645Z,69.30
2022-12-01T22:14:33.197Z,66.87
2022-12-01T22:19:42.275Z,72.00
2022-12-01T22:24:47.905Z,76.30
2022-12-01T22:29:53.556Z,69.00
2022-12-01T22:35:01.207Z,74.53
2022-12-01T22:40:30.594Z,68.85
2022-12-01T22:45:34.499Z,71.10
2022-12-01T22:50:40.707Z,74.90
2022-12-01T22:55:44.725Z,74.12
2022-12-01T23:00:48.495Z,83.35
2022-12-01T23:05:57.418Z,84.75
2022-12-01T23:11:01.206Z,67.85
2022-12-01T23:16:05.653Z,77.78
2022-12-01T23:21:11.132Z,75.03
2022-12-01T23:26:15.002Z,73.10
2022-12-01T23:31:18.750Z,75.87
2022-12-01T23:36:26.042Z,71.80
2022-12-01T23:41:33.938Z,84.80
2022-12-01T23:46:37.976Z,75.28
2022-12-01T23:51:46.699Z,84.47
2022-12-01T23:56:53.201Z,84.70
